Terminal Aerodrome Forecast
Issued by NWS Huntsville, AL

Home | Current Version | Previous Version | Text Only | Print | Product List | Glossary On
Versions: 1 2 3 4 5 6 7 8 9 10 11 12 13 14 15 16 17
000
FTUS44 KHUN 241720
TAFMSL
TAF
KMSL 241720Z 2418/2518 18012G20KT P6SM SCT040 BKN050
     FM250200 16008KT P6SM OVC050 WS020/18035KT
     FM251100 16012KT P6SM SCT035 OVC050
     FM251500 17015G25KT P6SM VCSH BKN035 OVC050=

USA.gov is the U.S. government's official web portal to all federal, state and local government web resources and services.